createdAt,value
2018-01-27T00:01:26.062Z,62.03
2018-01-27T00:03:53.522Z,59.50
2018-01-27T00:06:20.998Z,58.63
2018-01-27T00:08:48.461Z,50.77
2018-01-27T00:11:15.942Z,51.60
2018-01-27T00:13:50.848Z,53.87
2018-01-27T00:16:18.347Z,41.70
2018-01-27T00:18:46.578Z,47.73
2018-01-27T00:21:14.039Z,44.10
2018-01-27T00:23:41.522Z,43.53
2018-01-27T00:26:09.778Z,50.90
2018-01-27T00:28:37.245Z,45.87
2018-01-27T00:31:05.478Z,47.07
2018-01-27T00:33:32.966Z,41.53
2018-01-27T00:36:00.449Z,41.53
2018-01-27T00:38:28.714Z,45.97
2018-01-27T00:40:56.938Z,50.53
2018-01-27T00:43:24.440Z,46.87
2018-01-27T00:45:51.896Z,48.57
2018-01-27T00:48:19.371Z,56.90
2018-01-27T00:50:47.603Z,52.43
2018-01-27T00:53:15.082Z,52.17
2018-01-27T00:55:42.587Z,59.70
2018-01-27T00:58:10.062Z,56.40
2018-01-27T01:00:37.546Z,62.63
2018-01-27T01:03:05.023Z,60.67
2018-01-27T01:05:33.259Z,65.60
2018-01-27T01:08:00.746Z,66.63
2018-01-27T01:10:29.018Z,60.60
2018-01-27T01:12:56.529Z,74.47
2018-01-27T01:15:23.979Z,73.50
2018-01-27T01:17:51.449Z,72.63
2018-01-27T01:20:18.941Z,78.27
2018-01-27T01:22:46.391Z,76.67
2018-01-27T01:25:13.874Z,79.27
2018-01-27T01:27:41.374Z,91.20
2018-01-27T01:30:08.895Z,100.27
2018-01-27T01:32:37.263Z,94.63
2018-01-27T01:35:04.735Z,105.37
2018-01-27T01:37:33.011Z,113.23
2018-01-27T01:40:00.488Z,116.50
2018-01-27T01:42:33.546Z,119.23
2018-01-27T01:45:01.819Z,112.73
2018-01-27T01:47:30.048Z,127.47
2018-01-27T01:49:57.546Z,120.80
2018-01-27T01:52:25.010Z,118.43
2018-01-27T01:54:53.259Z,121.97
2018-01-27T01:57:20.719Z,105.00
2018-01-27T01:59:48.202Z,106.63
2018-01-27T02:02:16.430Z,106.67
2018-01-27T02:04:43.951Z,101.13
2018-01-27T02:07:11.414Z,99.17
2018-01-27T02:09:38.898Z,97.10
2018-01-27T02:12:06.369Z,101.60
2018-01-27T02:14:33.843Z,94.60
2018-01-27T02:17:01.327Z,95.20
2018-01-27T02:19:28.782Z,97.77
2018-01-27T02:21:57.060Z,103.93
2018-01-27T02:24:24.546Z,86.83
2018-01-27T02:26:52.010Z,80.97
2018-01-27T02:29:19.489Z,82.47
2018-01-27T02:31:46.987Z,86.20
2018-01-27T02:34:15.215Z,80.40
2018-01-27T02:36:42.689Z,85.40
2018-01-27T02:39:10.160Z,91.27
2018-01-27T02:41:37.663Z,86.97
2018-01-27T02:44:05.130Z,77.73
2018-01-27T02:46:32.604Z,89.03
2018-01-27T02:49:00.101Z,90.47
2018-01-27T02:51:28.342Z,87.03
2018-01-27T02:53:55.822Z,88.20
2018-01-27T02:56:23.306Z,84.77
2018-01-27T02:58:50.806Z,94.67
2018-01-27T03:01:18.271Z,82.87
2018-01-27T03:03:45.759Z,80.50
2018-01-27T03:06:14.000Z,89.27
2018-01-27T03:08:41.509Z,89.83
2018-01-27T03:11:08.974Z,87.83
2018-01-27T03:13:36.458Z,82.93
2018-01-27T03:16:03.930Z,90.87
2018-01-27T03:18:31.387Z,81.37
2018-01-27T03:20:58.847Z,78.93
2018-01-27T03:23:26.338Z,71.73
2018-01-27T03:25:53.804Z,76.50
2018-01-27T03:28:21.293Z,73.03
2018-01-27T03:30:48.760Z,75.70
2018-01-27T03:33:16.234Z,68.80
2018-01-27T03:35:44.463Z,67.40
2018-01-27T03:38:11.953Z,76.97
2018-01-27T03:40:39.442Z,76.40
2018-01-27T03:43:07.711Z,69.73
2018-01-27T03:45:35.176Z,67.33
2018-01-27T03:48:02.666Z,64.33
2018-01-27T03:50:30.151Z,68.63
2018-01-27T03:52:57.610Z,72.13
2018-01-27T03:55:25.075Z,69.37
2018-01-27T03:57:52.558Z,74.03
2018-01-27T04:00:20.049Z,66.90
2018-01-27T04:02:48.314Z,71.57
2018-01-27T04:05:15.761Z,65.97
2018-01-27T04:07:43.219Z,58.37
2018-01-27T04:10:10.738Z,69.73
2018-01-27T04:12:38.206Z,70.70
2018-01-27T04:15:05.674Z,66.33
2018-01-27T04:17:33.946Z,64.57
2018-01-27T04:20:01.435Z,65.47
2018-01-27T04:22:29.666Z,63.03
2018-01-27T04:24:57.885Z,75.63
2018-01-27T04:27:26.134Z,68.00
2018-01-27T04:29:53.589Z,70.93
2018-01-27T04:32:21.054Z,67.10
2018-01-27T04:34:48.558Z,60.50
2018-01-27T04:37:16.066Z,65.67
2018-01-27T04:39:43.522Z,68.70
2018-01-27T04:42:10.989Z,61.57
2018-01-27T04:44:39.253Z,65.80
2018-01-27T04:47:06.714Z,67.00
2018-01-27T04:49:34.196Z,63.43
2018-01-27T04:52:02.447Z,67.47
2018-01-27T04:54:29.903Z,67.33
2018-01-27T04:56:57.374Z,68.70
2018-01-27T04:59:25.612Z,71.07
2018-01-27T05:01:53.144Z,69.20
2018-01-27T05:04:20.601Z,65.73
2018-01-27T05:06:48.086Z,73.20
2018-01-27T05:09:15.622Z,67.07
2018-01-27T05:11:43.112Z,70.13
2018-01-27T05:14:10.588Z,65.03
2018-01-27T05:16:38.106Z,65.00
2018-01-27T05:19:05.578Z,68.83
2018-01-27T05:21:33.055Z,69.77
2018-01-27T05:24:00.538Z,69.40
2018-01-27T05:26:28.770Z,65.00
2018-01-27T05:28:56.239Z,67.03
2018-01-27T05:31:23.730Z,64.20
2018-01-27T05:33:51.219Z,71.47
2018-01-27T05:36:18.691Z,64.93
2018-01-27T05:38:46.194Z,74.23
2018-01-27T05:41:14.422Z,60.53
2018-01-27T05:43:41.902Z,64.83
2018-01-27T05:46:09.391Z,62.37
2018-01-27T05:48:36.841Z,64.17
2018-01-27T05:51:04.304Z,59.43
2018-01-27T05:53:31.794Z,60.50
2018-01-27T05:55:59.263Z,62.97
2018-01-27T05:58:26.749Z,53.80
2018-01-27T06:00:54.227Z,58.50
2018-01-27T06:03:21.712Z,56.23
2018-01-27T06:05:49.170Z,59.47
2018-01-27T06:08:16.647Z,63.30
2018-01-27T06:10:44.145Z,62.43
2018-01-27T06:13:12.378Z,60.03
2018-01-27T06:15:39.850Z,55.30
2018-01-27T06:18:07.352Z,57.17
2018-01-27T06:20:35.567Z,51.50
2018-01-27T06:23:03.050Z,58.37
2018-01-27T06:25:30.542Z,67.23
2018-01-27T06:27:57.999Z,59.73
2018-01-27T06:30:25.504Z,58.13
2018-01-27T06:32:52.962Z,59.47
2018-01-27T06:35:20.474Z,57.73
2018-01-27T06:37:47.930Z,55.90
2018-01-27T06:40:15.403Z,59.47
2018-01-27T06:42:42.902Z,57.87
2018-01-27T06:45:10.370Z,57.17
2018-01-27T06:47:37.830Z,59.33
2018-01-27T06:50:05.362Z,65.20
2018-01-27T06:52:32.843Z,66.93
2018-01-27T06:55:00.302Z,67.13
2018-01-27T06:57:28.585Z,63.97
2018-01-27T06:59:57.181Z,65.00
2018-01-27T07:02:24.666Z,62.40
2018-01-27T07:04:52.130Z,60.20
2018-01-27T07:07:19.615Z,63.27
2018-01-27T07:09:47.134Z,69.93
2018-01-27T07:12:14.610Z,61.70
2018-01-27T07:14:42.090Z,60.77
2018-01-27T07:17:09.546Z,56.77
2018-01-27T07:19:37.070Z,60.50
2018-01-27T07:22:04.522Z,61.77
2018-01-27T07:24:31.994Z,60.53
2018-01-27T07:26:59.480Z,68.03
2018-01-27T07:29:26.964Z,63.80
2018-01-27T07:31:54.424Z,63.77
2018-01-27T07:34:21.946Z,63.50
2018-01-27T07:36:49.410Z,67.87
2018-01-27T07:39:16.874Z,58.57
2018-01-27T07:41:44.350Z,70.13
2018-01-27T07:44:11.820Z,71.57
2018-01-27T07:46:39.306Z,68.83
2018-01-27T07:49:06.763Z,63.43
2018-01-27T07:51:34.220Z,65.20
2018-01-27T07:54:01.714Z,65.10
2018-01-27T07:56:29.183Z,60.57
2018-01-27T07:58:57.426Z,64.13
2018-01-27T08:01:24.882Z,62.30
2018-01-27T08:03:52.382Z,59.90
2018-01-27T08:06:19.892Z,58.63
2018-01-27T08:08:47.326Z,56.57
2018-01-27T08:11:14.814Z,66.70
2018-01-27T08:13:42.320Z,52.23
2018-01-27T08:16:09.794Z,57.97
2018-01-27T08:18:37.258Z,60.80
2018-01-27T08:21:04.751Z,53.73
2018-01-27T08:23:32.250Z,53.97
2018-01-27T08:25:59.706Z,49.20
2018-01-27T08:28:27.201Z,48.33
2018-01-27T08:30:54.666Z,51.33
2018-01-27T08:33:22.156Z,49.80
2018-01-27T08:35:50.379Z,50.03
2018-01-27T08:38:17.894Z,47.83
2018-01-27T08:40:45.367Z,48.03
2018-01-27T08:43:12.862Z,47.73
2018-01-27T08:45:40.322Z,41.53
2018-01-27T08:48:07.778Z,40.67
2018-01-27T08:50:35.276Z,50.40
2018-01-27T08:53:03.514Z,41.13
2018-01-27T08:55:30.993Z,46.37
2018-01-27T08:57:58.470Z,43.43
2018-01-27T09:00:26.719Z,44.53
2018-01-27T09:02:54.174Z,41.30
2018-01-27T09:05:21.671Z,40.47
2018-01-27T09:07:49.877Z,43.00
2018-01-27T09:10:17.360Z,38.97
2018-01-27T09:12:44.828Z,44.47
2018-01-27T09:15:12.338Z,41.03
2018-01-27T09:17:39.821Z,40.23
2018-01-27T09:20:07.345Z,55.67
2018-01-27T09:22:34.817Z,42.97
2018-01-27T09:25:02.290Z,47.47
2018-01-27T09:27:29.771Z,46.40
2018-01-27T09:29:57.350Z,55.97
2018-01-27T09:32:25.638Z,47.10
2018-01-27T09:34:53.867Z,51.60
2018-01-27T09:37:21.376Z,56.37
2018-01-27T09:39:48.827Z,54.37
2018-01-27T09:42:17.103Z,53.33
2018-01-27T09:44:45.338Z,54.77
2018-01-27T09:47:12.819Z,50.50
2018-01-27T09:49:41.109Z,56.33
2018-01-27T09:52:08.642Z,52.23
2018-01-27T09:54:36.149Z,57.43
2018-01-27T09:57:03.590Z,56.37
2018-01-27T09:59:31.047Z,50.20
2018-01-27T10:01:58.532Z,55.97
2018-01-27T10:04:26.028Z,50.13
2018-01-27T10:06:53.582Z,51.23
2018-01-27T10:09:21.054Z,60.77
2018-01-27T10:11:48.510Z,55.93
2018-01-27T10:14:16.756Z,51.47
2018-01-27T10:16:44.219Z,53.97
2018-01-27T10:19:11.702Z,50.37
2018-01-27T10:21:39.203Z,48.60
2018-01-27T10:24:06.666Z,49.97
2018-01-27T10:26:34.129Z,58.40
2018-01-27T10:29:01.607Z,50.90
2018-01-27T10:31:29.063Z,56.50
2018-01-27T10:33:56.534Z,50.30
2018-01-27T10:36:23.990Z,52.20
2018-01-27T10:38:51.486Z,49.67
2018-01-27T10:41:18.946Z,50.77
2018-01-27T10:43:46.413Z,49.00
2018-01-27T10:46:13.882Z,50.77
2018-01-27T10:48:41.341Z,49.63
2018-01-27T10:51:08.826Z,50.57
2018-01-27T10:53:36.285Z,46.87
2018-01-27T10:56:03.761Z,45.73
2018-01-27T10:58:31.222Z,45.80
2018-01-27T11:00:58.715Z,46.67
2018-01-27T11:03:26.178Z,47.10
2018-01-27T11:05:53.670Z,46.43
2018-01-27T11:08:21.127Z,53.80
2018-01-27T11:10:48.602Z,46.80
2018-01-27T11:13:16.087Z,47.60
2018-01-27T11:15:43.579Z,43.70
2018-01-27T11:18:11.070Z,48.67
2018-01-27T11:20:38.534Z,54.33
2018-01-27T11:23:06.035Z,43.93
2018-01-27T11:25:33.498Z,38.17
2018-01-27T11:28:00.966Z,41.03
2018-01-27T11:30:28.450Z,46.77
2018-01-27T11:32:55.910Z,39.60
2018-01-27T11:35:23.407Z,44.47
2018-01-27T11:37:50.881Z,46.20
2018-01-27T11:40:18.363Z,45.63
2018-01-27T11:42:45.855Z,49.33
2018-01-27T11:45:13.317Z,48.93
2018-01-27T11:47:41.579Z,47.40
2018-01-27T11:50:09.053Z,46.13
2018-01-27T11:52:36.539Z,51.40
2018-01-27T11:55:04.105Z,42.23
2018-01-27T11:57:31.611Z,45.20
2018-01-27T11:59:59.114Z,47.90
2018-01-27T12:02:27.065Z,46.57
2018-01-27T12:04:54.560Z,50.73
2018-01-27T12:07:22.102Z,44.57
2018-01-27T12:09:49.606Z,50.00
2018-01-27T12:12:17.083Z,48.73
2018-01-27T12:14:44.627Z,50.60
2018-01-27T12:17:12.091Z,48.57
2018-01-27T12:19:39.546Z,44.37
2018-01-27T12:22:07.823Z,41.23
2018-01-27T12:24:35.327Z,41.30
2018-01-27T12:27:02.789Z,38.47
2018-01-27T12:29:30.271Z,40.03
2018-01-27T12:31:57.759Z,36.80
2018-01-27T12:34:26.018Z,36.60
2018-01-27T12:36:53.470Z,36.87
2018-01-27T12:39:20.958Z,38.87
2018-01-27T12:41:49.194Z,33.37
2018-01-27T12:44:16.778Z,42.60
2018-01-27T12:46:45.018Z,35.37
2018-01-27T12:49:12.483Z,37.87
2018-01-27T12:51:39.970Z,41.63
2018-01-27T12:54:08.286Z,41.27
2018-01-27T12:56:35.794Z,40.93
2018-01-27T12:59:03.241Z,36.60
2018-01-27T13:01:30.723Z,37.63
2018-01-27T13:03:58.970Z,42.10
2018-01-27T13:06:26.430Z,40.00
2018-01-27T13:08:53.916Z,34.43
2018-01-27T13:11:22.194Z,40.00
2018-01-27T13:13:50.435Z,40.07
2018-01-27T13:16:17.950Z,40.73
2018-01-27T13:18:45.450Z,42.77
2018-01-27T13:21:12.935Z,36.37
2018-01-27T13:23:40.640Z,33.90
2018-01-27T13:26:08.087Z,40.73
2018-01-27T13:28:35.569Z,45.53
2018-01-27T13:31:03.143Z,42.73
2018-01-27T13:33:30.634Z,36.80
2018-01-27T13:35:58.857Z,38.87
2018-01-27T13:38:26.504Z,47.20
2018-01-27T13:40:54.024Z,39.93
2018-01-27T13:43:21.458Z,36.93
2018-01-27T13:45:48.939Z,35.23
2018-01-27T13:48:16.398Z,41.07
2018-01-27T13:50:43.870Z,38.80
2018-01-27T13:53:12.114Z,36.77
2018-01-27T13:55:39.602Z,41.47
2018-01-27T13:58:07.875Z,46.37
2018-01-27T14:00:35.326Z,41.53
2018-01-27T14:03:03.594Z,40.33
2018-01-27T14:05:31.058Z,45.77
2018-01-27T14:07:59.335Z,45.93
2018-01-27T14:10:27.574Z,45.60
2018-01-27T14:12:55.066Z,42.47
2018-01-27T14:15:22.556Z,49.03
2018-01-27T14:17:50.034Z,41.80
2018-01-27T14:20:17.519Z,45.23
2018-01-27T14:22:45.001Z,45.50
2018-01-27T14:25:12.445Z,48.00
2018-01-27T14:27:39.962Z,45.70
2018-01-27T14:30:07.462Z,46.03
2018-01-27T14:32:35.747Z,46.17
2018-01-27T14:35:03.312Z,45.13
2018-01-27T14:37:30.782Z,37.17
2018-01-27T14:39:58.302Z,45.87
2018-01-27T14:42:25.795Z,38.73
2018-01-27T14:44:53.263Z,37.60
2018-01-27T14:47:20.750Z,42.97
2018-01-27T14:49:48.210Z,38.03
2018-01-27T14:52:15.716Z,38.57
2018-01-27T14:54:43.937Z,41.63
2018-01-27T14:57:11.403Z,39.90
2018-01-27T14:59:38.883Z,36.57
2018-01-27T15:02:06.364Z,36.37
2018-01-27T15:04:34.590Z,37.30
2018-01-27T15:07:02.075Z,46.03
2018-01-27T15:09:29.553Z,41.90
2018-01-27T15:11:57.800Z,37.10
2018-01-27T15:14:25.294Z,46.10
2018-01-27T15:16:52.779Z,37.07
2018-01-27T15:19:20.261Z,41.77
2018-01-27T15:21:47.784Z,39.37
2018-01-27T15:24:15.254Z,37.40
2018-01-27T15:26:42.710Z,36.90
2018-01-27T15:29:10.210Z,38.10
2018-01-27T15:31:37.670Z,37.33
2018-01-27T15:34:05.900Z,36.47
2018-01-27T15:36:33.389Z,41.13
2018-01-27T15:39:00.861Z,32.53
2018-01-27T15:41:29.086Z,34.20
2018-01-27T15:43:56.583Z,38.90
2018-01-27T15:46:24.089Z,40.57
2018-01-27T15:48:51.554Z,33.60
2018-01-27T15:51:19.016Z,35.27
2018-01-27T15:53:46.514Z,33.97
2018-01-27T15:56:13.969Z,35.37
2018-01-27T15:58:41.443Z,30.93
2018-01-27T16:01:09.698Z,33.13
2018-01-27T16:03:37.202Z,36.37
2018-01-27T16:06:04.691Z,31.30
2018-01-27T16:08:32.182Z,35.07
2018-01-27T16:10:59.651Z,40.40
2018-01-27T16:13:27.138Z,36.07
2018-01-27T16:15:54.622Z,40.33
2018-01-27T16:18:22.140Z,41.07
2018-01-27T16:20:50.392Z,37.87
2018-01-27T16:23:17.822Z,44.73
2018-01-27T16:25:45.315Z,39.63
2018-01-27T16:28:13.571Z,45.20
2018-01-27T16:30:41.050Z,42.73
2018-01-27T16:33:09.278Z,42.97
2018-01-27T16:35:36.778Z,42.77
2018-01-27T16:38:04.246Z,46.10
2018-01-27T16:40:32.467Z,45.30
2018-01-27T16:42:59.962Z,43.37
2018-01-27T16:45:28.295Z,43.43
2018-01-27T16:47:55.787Z,43.97
2018-01-27T16:50:23.274Z,31.80
2018-01-27T16:52:50.763Z,34.27
2018-01-27T16:55:18.234Z,38.53
2018-01-27T16:57:45.697Z,34.50
2018-01-27T17:00:13.214Z,39.90
2018-01-27T17:02:41.462Z,36.23
2018-01-27T17:05:09.684Z,33.30
2018-01-27T17:07:37.141Z,36.40
2018-01-27T17:10:04.619Z,34.27
2018-01-27T17:12:32.088Z,38.90
2018-01-27T17:14:59.587Z,37.10
2018-01-27T17:17:27.066Z,40.33
2018-01-27T17:19:54.702Z,35.67
2018-01-27T17:22:22.194Z,36.57
2018-01-27T17:24:49.658Z,33.70
2018-01-27T17:27:17.130Z,35.67
2018-01-27T17:29:44.622Z,33.63
2018-01-27T17:32:12.855Z,31.33
2018-01-27T17:34:41.108Z,33.37
2018-01-27T17:37:08.564Z,31.33
2018-01-27T17:39:36.043Z,33.93
2018-01-27T17:42:03.507Z,33.63
2018-01-27T17:44:31.786Z,34.07
2018-01-27T17:46:59.256Z,36.70
2018-01-27T17:49:26.722Z,34.00
2018-01-27T17:51:54.995Z,36.70
2018-01-27T17:54:22.498Z,39.97
2018-01-27T17:56:50.031Z,35.73
2018-01-27T17:59:17.477Z,36.23
2018-01-27T18:01:44.975Z,40.27
2018-01-27T18:04:12.461Z,38.13
2018-01-27T18:06:39.922Z,39.27
2018-01-27T18:09:07.430Z,35.53
2018-01-27T18:11:34.890Z,35.87
2018-01-27T18:14:02.360Z,38.27
2018-01-27T18:16:29.882Z,41.00
2018-01-27T18:18:58.108Z,38.87
2018-01-27T18:21:25.567Z,42.57
2018-01-27T18:23:53.042Z,43.13
2018-01-27T18:26:20.553Z,57.57
2018-01-27T18:28:48.022Z,38.70
2018-01-27T18:31:15.545Z,44.33
2018-01-27T18:33:43.766Z,46.90
2018-01-27T18:36:11.244Z,49.50
2018-01-27T18:38:39.474Z,47.67
2018-01-27T18:41:06.962Z,48.17
2018-01-27T18:43:34.434Z,45.03
2018-01-27T18:46:01.893Z,48.83
2018-01-27T18:48:29.383Z,43.53
2018-01-27T18:50:57.610Z,47.37
2018-01-27T18:53:25.249Z,49.70
2018-01-27T18:55:52.706Z,47.60
2018-01-27T18:58:20.182Z,51.77
2018-01-27T19:00:47.672Z,51.67
2018-01-27T19:03:15.146Z,50.83
2018-01-27T19:05:43.408Z,47.10
2018-01-27T19:08:10.886Z,46.20
2018-01-27T19:10:39.115Z,49.10
2018-01-27T19:13:06.599Z,49.60
2018-01-27T19:15:34.067Z,46.47
2018-01-27T19:18:02.320Z,55.60
2018-01-27T19:20:29.779Z,44.87
2018-01-27T19:22:57.290Z,48.13
2018-01-27T19:25:24.753Z,45.87
2018-01-27T19:27:52.236Z,47.77
2018-01-27T19:30:19.793Z,48.53
2018-01-27T19:32:47.267Z,46.90
2018-01-27T19:35:14.838Z,40.97
2018-01-27T19:37:42.311Z,38.93
2018-01-27T19:40:09.774Z,39.27
2018-01-27T19:42:37.358Z,41.37
2018-01-27T19:45:04.829Z,39.70
2018-01-27T19:47:32.281Z,40.43
2018-01-27T19:49:59.763Z,40.57
2018-01-27T19:52:27.272Z,38.10
2018-01-27T19:54:54.743Z,39.57
2018-01-27T19:57:22.228Z,38.80
2018-01-27T19:59:49.710Z,40.83
2018-01-27T20:02:17.166Z,40.10
2018-01-27T20:04:44.678Z,41.53
2018-01-27T20:07:12.210Z,37.90
2018-01-27T20:09:39.682Z,38.00
2018-01-27T20:12:07.178Z,38.90
2018-01-27T20:14:34.648Z,35.47
2018-01-27T20:17:02.996Z,34.47
2018-01-27T20:19:30.453Z,36.40
2018-01-27T20:21:57.973Z,35.57
2018-01-27T20:24:25.439Z,35.27
2018-01-27T20:26:52.932Z,34.40
2018-01-27T20:29:20.386Z,34.03
2018-01-27T20:31:47.882Z,30.37
2018-01-27T20:34:15.386Z,32.67
2018-01-27T20:36:42.863Z,33.10
2018-01-27T20:39:10.327Z,40.40
2018-01-27T20:41:37.894Z,38.47
2018-01-27T20:44:05.351Z,34.57
2018-01-27T20:46:32.829Z,33.53
2018-01-27T20:49:01.087Z,36.67
2018-01-27T20:51:29.333Z,32.53
2018-01-27T20:53:56.799Z,36.37
2018-01-27T20:56:25.256Z,33.43
2018-01-27T20:58:52.732Z,34.07
2018-01-27T21:01:20.228Z,30.37
2018-01-27T21:03:47.686Z,30.57
2018-01-27T21:06:15.288Z,33.97
2018-01-27T21:08:42.750Z,29.20
2018-01-27T21:11:10.214Z,33.20
2018-01-27T21:13:37.708Z,33.33
2018-01-27T21:16:05.168Z,34.47
2018-01-27T21:18:33.462Z,29.93
2018-01-27T21:21:01.696Z,30.80
2018-01-27T21:23:29.175Z,32.93
2018-01-27T21:25:56.635Z,32.77
2018-01-27T21:28:24.122Z,32.97
2018-01-27T21:30:51.621Z,27.87
2018-01-27T21:33:19.099Z,30.50
2018-01-27T21:35:46.560Z,27.17
2018-01-27T21:38:14.044Z,28.90
2018-01-27T21:40:42.301Z,26.83
2018-01-27T21:43:09.810Z,30.73
2018-01-27T21:45:37.283Z,26.10
2018-01-27T21:48:04.822Z,24.30
2018-01-27T21:50:32.287Z,29.17
2018-01-27T21:52:59.767Z,27.50
2018-01-27T21:55:27.227Z,27.53
2018-01-27T21:57:54.718Z,24.87
2018-01-27T22:00:22.939Z,28.30
2018-01-27T22:02:50.402Z,27.63
2018-01-27T22:05:17.896Z,28.53
2018-01-27T22:07:45.346Z,27.87
2018-01-27T22:10:12.853Z,24.47
2018-01-27T22:12:40.309Z,26.53
2018-01-27T22:15:07.795Z,27.10
2018-01-27T22:17:35.262Z,33.73
2018-01-27T22:20:02.743Z,29.03
2018-01-27T22:22:31.060Z,30.40
2018-01-27T22:24:58.527Z,28.53
2018-01-27T22:27:26.008Z,30.73
2018-01-27T22:29:53.490Z,29.80
2018-01-27T22:32:20.948Z,33.50
2018-01-27T22:34:49.190Z,30.63
2018-01-27T22:37:16.680Z,30.93
2018-01-27T22:39:44.142Z,33.07
2018-01-27T22:42:11.610Z,39.07
2018-01-27T22:44:39.102Z,32.60
2018-01-27T22:47:06.567Z,30.00
2018-01-27T22:49:34.063Z,35.50
2018-01-27T22:52:02.306Z,33.43
2018-01-27T22:54:30.557Z,31.63
2018-01-27T22:56:58.025Z,33.53
2018-01-27T22:59:25.502Z,35.27
2018-01-27T23:01:52.975Z,31.03
2018-01-27T23:04:20.441Z,36.37
2018-01-27T23:06:48.682Z,32.43
2018-01-27T23:09:16.193Z,30.83
2018-01-27T23:11:44.413Z,33.93
2018-01-27T23:14:11.914Z,31.57
2018-01-27T23:16:40.174Z,35.33
2018-01-27T23:19:07.630Z,32.93
2018-01-27T23:21:35.087Z,33.60
2018-01-27T23:24:02.569Z,33.83
2018-01-27T23:26:30.790Z,27.23
2018-01-27T23:28:58.280Z,27.43
2018-01-27T23:31:25.738Z,29.27
2018-01-27T23:33:53.217Z,24.40
2018-01-27T23:36:21.465Z,25.87
2018-01-27T23:38:49.073Z,26.03
2018-01-27T23:41:16.529Z,22.50
2018-01-27T23:43:43.997Z,22.87
2018-01-27T23:46:11.482Z,23.90
2018-01-27T23:48:38.937Z,22.17
2018-01-27T23:51:06.442Z,21.33
2018-01-27T23:53:34.666Z,22.10
2018-01-27T23:56:02.162Z,22.73
2018-01-27T23:58:30.442Z,18.40
